Time;durP1;ratioP1;P1;durP2;ratioP2;P2;SDS_P1;SDS_P2;PMS_P1;PMS_P2;Temp;Humidity;BMP_temperature;BMP_pressure;BME280_temperature;BME280_humidity;BME280_pressure;Samples;Min_cycle;Max_cycle;Signal;HPM_P1;HPM_P2
2023/09/17 00:00:05;;;;;;;8.50;6.80;;;;;;;15.99;86.55;100654.09;105421;1256;70027;-49
2023/09/17 00:02:34;;;;;;;7.20;6.00;;;;;;;16.03;86.86;100655.98;105762;1252;76177;-50
2023/09/17 00:05:03;;;;;;;7.90;6.30;;;;;;;16.03;86.46;100658.46;105614;1255;83400;-52
2023/09/17 00:07:31;;;;;;;7.70;5.50;;;;;;;15.98;86.46;100653.93;105499;1253;72711;-49
2023/09/17 00:10:00;;;;;;;8.70;6.20;;;;;;;15.96;86.37;100653.35;105548;1253;69925;-51
2023/09/17 00:12:28;;;;;;;9.60;6.70;;;;;;;15.94;86.45;100655.11;105742;1255;70065;-52
2023/09/17 00:14:57;;;;;;;7.60;6.20;;;;;;;15.93;86.75;100650.38;105681;1252;74888;-49
2023/09/17 00:17:25;;;;;;;8.80;6.50;;;;;;;15.92;86.69;100652.53;105397;1253;83936;-52
2023/09/17 00:19:53;;;;;;;9.10;6.50;;;;;;;15.91;86.82;100649.75;105638;1254;73693;-51
2023/09/17 00:22:22;;;;;;;9.20;6.60;;;;;;;15.92;87.02;100650.58;105605;1256;69936;-52
2023/09/17 00:24:50;;;;;;;9.80;6.80;;;;;;;15.92;87.02;100650.23;105612;1254;69851;-51
2023/09/17 00:27:18;;;;;;;7.90;6.70;;;;;;;15.94;87.21;100646.08;105758;1256;74776;-50
2023/09/17 00:29:47;;;;;;;10.60;6.80;;;;;;;15.95;87.36;100645.11;105575;1253;83396;-50
2023/09/17 00:32:15;;;;;;;9.40;7.20;;;;;;;15.97;87.24;100645.95;105406;1253;73663;-51
2023/09/17 00:34:43;;;;;;;7.80;6.20;;;;;;;15.96;87.25;100640.84;105760;1256;69933;-49
2023/09/17 00:37:12;;;;;;;8.80;6.60;;;;;;;15.95;87.18;100644.25;105510;1253;69981;-51
2023/09/17 00:39:44;;;;;;;8.40;6.60;;;;;;;15.94;87.24;100649.96;105836;1253;74636;-49
2023/09/17 00:42:12;;;;;;;11.40;7.00;;;;;;;15.95;87.43;100644.80;105678;1255;83636;-52
2023/09/17 00:44:40;;;;;;;10.20;7.40;;;;;;;15.95;87.34;100646.71;105492;1255;73016;-52
2023/09/17 00:47:09;;;;;;;9.00;6.50;;;;;;;15.94;87.25;100644.84;105262;1256;69987;-52
2023/09/17 00:49:38;;;;;;;10.40;6.90;;;;;;;15.93;87.32;100637.86;105779;1253;70853;-51
2023/09/17 00:52:14;;;;;;;11.80;6.70;;;;;;;15.92;87.33;100639.67;105493;1257;74362;-51
2023/09/17 00:54:45;;;;;;;8.00;6.40;;;;;;;15.88;87.04;100638.30;105350;1260;84085;-52
2023/09/17 00:57:17;;;;;;;8.30;6.70;;;;;;;15.85;87.29;100632.84;105473;1254;73829;-54
2023/09/17 00:59:47;;;;;;;9.60;6.80;;;;;;;15.85;87.64;100632.46;105621;1252;70007;-50
2023/09/17 01:02:17;;;;;;;;;;;;;;;15.87;87.86;100637.12;105469;1257;68999;-50
2023/09/17 01:04:49;;;;;;;9.60;6.80;;;;;;;15.88;87.98;100632.66;105480;1253;75373;-49
2023/09/17 01:07:18;;;;;;;8.50;7.10;;;;;;;15.89;87.87;100632.08;105707;1255;82398;-50
2023/09/17 01:09:47;;;;;;;9.20;7.50;;;;;;;15.86;87.74;100633.15;105637;1253;73650;-49
2023/09/17 01:12:16;;;;;;;9.40;6.80;;;;;;;15.84;87.75;100625.84;105400;1253;69800;-49
2023/09/17 01:14:46;;;;;;;10.40;7.30;;;;;;;15.83;87.96;100626.75;105704;1254;69842;-51
2023/09/17 01:17:15;;;;;;;8.30;7.10;;;;;;;15.84;88.08;100622.30;105449;1258;74750;-52
2023/09/17 01:19:44;;;;;;;9.10;7.20;;;;;;;15.86;88.28;100624.86;105574;1257;83330;-52
2023/09/17 01:22:12;;;;;;;9.60;7.40;;;;;;;15.86;88.24;100622.19;105522;1256;73829;-53
2023/09/17 01:24:59;;;;;;;8.70;6.90;;;;;;;15.87;88.43;100623.23;105444;1253;70577;-49
2023/09/17 01:27:28;;;;;;;11.40;7.00;;;;;;;15.88;88.51;100616.67;105728;1255;69922;-49
2023/09/17 01:29:57;;;;;;;9.10;6.80;;;;;;;15.88;88.43;100616.98;105464;1253;73812;-53
2023/09/17 01:32:25;;;;;;;8.60;6.60;;;;;;;15.88;88.48;100615.39;105784;1253;83859;-50
2023/09/17 01:34:54;;;;;;;9.20;6.80;;;;;;;15.87;88.34;100612.45;105652;1253;74290;-50
2023/09/17 01:37:32;;;;;;;9.00;6.80;;;;;;;15.86;88.45;100613.59;105847;1253;70099;-50
2023/09/17 01:40:05;;;;;;;8.60;6.70;;;;;;;15.86;88.56;100609.91;105725;1253;69871;-50
2023/09/17 01:42:35;;;;;;;8.30;6.90;;;;;;;15.86;88.56;100611.64;105838;1253;74838;-49
2023/09/17 01:45:04;;;;;;;8.30;6.60;;;;;;;15.84;88.54;100611.23;105726;1253;82897;-50
2023/09/17 01:47:34;;;;;;;9.20;6.80;;;;;;;15.82;88.55;100612.70;105629;1253;73790;-52
2023/09/17 01:50:04;;;;;;;;;;;;;;;15.80;88.51;100614.23;105428;1253;69866;-50
2023/09/17 01:52:33;;;;;;;7.50;5.90;;;;;;;15.77;88.46;100613.37;105561;1253;69996;-49
2023/09/17 01:55:02;;;;;;;10.60;6.60;;;;;;;15.73;88.57;100608.81;105558;1256;73811;-52
2023/09/17 01:57:33;;;;;;;8.50;7.30;;;;;;;15.72;88.71;100605.91;105619;1257;82449;-52
2023/09/17 02:00:16;;;;;;;7.50;6.60;;;;;;;15.70;88.80;100605.65;105486;1257;74707;-49
2023/09/17 02:02:48;;;;;;;10.20;7.10;;;;;;;15.68;88.91;100601.86;105684;1253;69961;-50
2023/09/17 02:05:20;;;;;;;9.60;7.20;;;;;;;15.69;89.12;100600.77;105868;1252;70285;-51
2023/09/17 02:07:48;;;;;;;9.30;7.10;;;;;;;15.68;89.08;100600.27;105403;1257;74890;-51
2023/09/17 02:10:18;;;;;;;9.00;7.50;;;;;;;15.68;89.06;100598.88;105632;1251;82566;-49
2023/09/17 02:12:47;;;;;;;9.40;7.90;;;;;;;15.67;89.15;100596.28;105629;1256;73528;-52
2023/09/17 02:15:15;;;;;;;9.10;7.20;;;;;;;15.66;89.21;100596.86;105468;1254;69898;-50
2023/09/17 02:17:44;;;;;;;8.60;6.80;;;;;;;15.65;89.29;100596.20;105451;1253;69951;-53
2023/09/17 02:20:12;;;;;;;9.50;7.00;;;;;;;15.64;89.34;100595.36;105505;1252;75098;-53
2023/09/17 02:22:41;;;;;;;7.60;6.80;;;;;;;15.64;89.35;100600.11;105665;1253;82099;-51
2023/09/17 02:25:10;;;;;;;10.60;7.60;;;;;;;15.63;89.38;100594.55;105575;1253;73056;-49
2023/09/17 02:27:39;;;;;;;9.40;7.00;;;;;;;15.62;89.45;100590.52;105693;1253;69983;-49
2023/09/17 02:30:08;;;;;;;9.90;7.20;;;;;;;15.62;89.49;100591.39;105484;1256;70207;-53
2023/09/17 02:32:39;;;;;;;9.90;7.10;;;;;;;15.62;89.51;100590.02;105610;1256;75073;-52
2023/09/17 02:35:08;;;;;;;8.40;6.50;;;;;;;15.61;89.61;100592.35;105396;1253;82307;-51
2023/09/17 02:37:37;;;;;;;9.50;7.10;;;;;;;15.61;89.68;100592.33;105652;1253;73739;-52
2023/09/17 02:40:08;;;;;;;9.20;7.40;;;;;;;15.61;89.71;100589.48;105435;1258;69980;-49
2023/09/17 02:42:38;;;;;;;9.80;7.80;;;;;;;15.63;89.83;100588.38;105448;1253;69883;-51
2023/09/17 02:45:08;;;;;;;12.80;7.70;;;;;;;15.63;89.81;100585.91;105458;1257;75000;-51
2023/09/17 02:47:40;;;;;;;9.60;7.70;;;;;;;15.64;89.82;100591.38;105579;1253;84117;-52
2023/09/17 02:50:09;;;;;;;10.50;7.80;;;;;;;15.63;89.73;100594.38;105747;1253;72392;-51
2023/09/17 02:52:39;;;;;;;10.70;7.80;;;;;;;15.62;89.73;100593.90;105798;1253;69171;-50
2023/09/17 02:55:08;;;;;;;12.90;8.50;;;;;;;15.60;89.72;100597.33;105680;1254;69967;-50
2023/09/17 02:57:37;;;;;;;13.90;8.30;;;;;;;15.60;89.93;100597.67;105689;1252;74845;-51
2023/09/17 03:00:10;;;;;;;12.50;8.40;;;;;;;15.61;89.91;100598.85;105704;1253;82393;-51
2023/09/17 03:02:40;;;;;;;11.10;7.80;;;;;;;15.61;89.86;100598.70;105516;1257;74246;-52
2023/09/17 03:05:10;;;;;;;;;;;;;;;15.61;89.95;100598.88;105573;1257;70010;-52
2023/09/17 03:07:39;;;;;;;;;;;;;;;15.61;89.98;100601.52;105592;1253;69879;-53
2023/09/17 03:10:11;;;;;;;;;;;;;;;15.62;89.95;100599.89;105617;1255;74902;-50
2023/09/17 03:12:41;;;;;;;;;;;;;;;15.61;89.90;100599.05;105653;1255;83030;-50
2023/09/17 03:15:10;;;;;;;;;;;;;;;15.59;89.80;100594.58;105690;1256;73625;-50
2023/09/17 03:17:42;;;;;;;;;;;;;;;15.58;89.82;100592.20;105733;1253;69743;-50
2023/09/17 03:20:33;;;;;;;;;;;;;;;15.58;89.97;100592.20;105604;1256;69272;-53
2023/09/17 03:23:02;;;;;;;;;;;;;;;15.58;89.99;100589.67;105732;1256;74858;-51
2023/09/17 03:25:31;;;;;;;;;;;;;;;15.57;89.99;100588.33;105543;1253;82575;-51
2023/09/17 03:28:00;;;;;;;;;;;;;;;15.56;89.89;100589.64;105746;1252;73361;-51
2023/09/17 03:30:28;;;;;;;;;;;;;;;15.54;89.95;100587.61;105826;1253;69173;-52
2023/09/17 03:32:58;;;;;;;;;;;;;;;15.53;90.00;100588.89;105697;1252;69081;-50
2023/09/17 03:35:37;;;;;;;;;;;;;;;15.51;89.86;100584.26;105568;1253;73735;-51
2023/09/17 03:38:05;;;;;;;;;;;;;;;15.48;89.85;100585.30;105550;1258;83533;-50
2023/09/17 03:40:33;;;;;;;;;;;;;;;15.47;90.02;100583.63;105607;1255;73115;-50
2023/09/17 03:43:02;;;;;;;;;;;;;;;15.47;90.15;100583.11;105521;1254;70077;-51
2023/09/17 03:45:32;;;;;;;;;;;;;;;15.47;90.25;100579.39;105625;1253;69894;-51
2023/09/17 03:48:00;;;;;;;;;;;;;;;15.48;90.23;100581.14;105459;1257;73833;-51
2023/09/17 03:50:30;;;;;;;;;;;;;;;15.48;90.23;100574.27;105717;1253;83368;-49
2023/09/17 03:52:59;;;;;;;;;;;;;;;15.48;90.28;100574.94;105584;1259;73671;-52
2023/09/17 03:55:28;;;;;;;;;;;;;;;15.49;90.21;100573.47;105548;1257;69957;-49
2023/09/17 03:57:59;;;;;;;;;;;;;;;15.51;90.28;100575.98;105592;1258;69881;-50
2023/09/17 04:00:30;;;;;;;;;;;;;;;15.53;90.27;100573.96;105467;1256;75051;-52
2023/09/17 04:03:00;;;;;;;;;;;;;;;15.53;90.21;100572.70;105637;1257;83393;-51
2023/09/17 04:05:29;;;;;;;;;;;;;;;15.53;90.16;100573.76;105711;1256;73546;-51
2023/09/17 04:07:57;;;;;;;;;;;;;;;15.55;90.16;100576.52;105722;1256;69070;-52
2023/09/17 04:10:26;;;;;;;;;;;;;;;15.56;90.22;100579.98;105714;1253;69929;-50
2023/09/17 04:12:54;;;;;;;;;;;;;;;15.56;90.11;100577.30;105613;1257;74820;-51
2023/09/17 04:15:22;;;;;;;;;;;;;;;15.57;90.03;100580.06;105678;1255;83196;-51
2023/09/17 04:17:51;;;;;;;;;;;;;;;15.55;89.81;100581.23;105749;1253;73464;-53
2023/09/17 04:20:20;;;;;;;;;;;;;;;15.53;89.81;100586.45;105586;1252;69984;-53
2023/09/17 04:22:49;;;;;;;;;;;;;;;15.52;89.70;100583.70;105559;1255;69875;-52
2023/09/17 04:25:18;;;;;;;;;;;;;;;15.50;89.63;100586.29;105788;1253;72539;-50
2023/09/17 04:27:48;;;;;;;;;;;;;;;15.48;89.63;100580.95;105612;1253;83488;-52
2023/09/17 04:30:18;;;;;;;;;;;;;;;15.45;89.58;100584.45;105556;1254;72741;-50
2023/09/17 04:32:48;;;;;;;;;;;;;;;15.44;89.71;100584.34;105472;1253;69998;-54
2023/09/17 04:35:17;;;;;;;;;;;;;;;15.42;89.71;100584.25;105744;1253;69878;-52
2023/09/17 04:37:47;;;;;;;;;;;;;;;15.40;89.81;100587.70;105747;1255;74385;-50
2023/09/17 04:40:17;;;;;;;;;;;;;;;15.36;89.76;100585.42;105687;1253;83386;-50
2023/09/17 04:42:47;;;;;;;;;;;;;;;15.36;89.86;100587.58;105540;1254;73753;-49
2023/09/17 04:45:33;;;;;;;;;;;;;;;15.35;90.01;100585.50;105381;1253;69835;-53
2023/09/17 04:48:04;;;;;;;;;;;;;;;15.35;90.00;100586.91;105567;1256;70011;-51
2023/09/17 04:50:33;;;;;;;;;;;;;;;15.35;90.16;100587.63;105436;1257;74828;-49
2023/09/17 04:53:03;;;;;;;;;;;;;;;15.36;90.27;100587.38;105764;1253;83433;-49
2023/09/17 04:55:32;;;;;;;;;;;;;;;15.37;90.25;100590.48;105577;1257;73925;-52
2023/09/17 04:58:01;;;;;;;;;;;;;;;15.37;90.24;100591.73;105635;1257;70011;-49
2023/09/17 05:00:30;;;;;;;;;;;;;;;15.37;90.31;100592.39;105552;1253;69859;-50
2023/09/17 05:02:58;;;;;;;;;;;;;;;15.39;90.33;100593.89;105890;1256;74011;-50
2023/09/17 05:05:27;;;;;;;;;;;;;;;15.40;90.50;100599.09;105548;1257;83249;-49
2023/09/17 05:07:56;;;;;;;;;;;;;;;15.45;90.63;100603.45;105534;1253;72655;-49
2023/09/17 05:10:25;;;;;;;;;;;;;;;15.46;90.47;100601.29;105548;1257;69874;-51
2023/09/17 05:12:54;;;;;;;;;;;;;;;15.48;90.54;100606.30;105472;1255;69962;-49
2023/09/17 05:15:22;;;;;;;;;;;;;;;15.49;90.53;100606.91;105303;1258;75125;-49
2023/09/17 05:17:52;;;;;;;;;;;;;;;15.52;90.60;100610.84;105545;1253;83324;-49
2023/09/17 05:20:23;;;;;;;;;;;;;;;15.54;90.71;100616.35;105425;1253;73720;-51
2023/09/17 05:22:51;;;;;;;;;;;;;;;15.57;90.85;100617.39;105445;1258;70009;-52
2023/09/17 05:25:20;;;;;;;;;;;;;;;15.60;90.74;100622.33;105599;1253;69988;-50
2023/09/17 05:27:48;;;;;;;;;;;;;;;15.61;90.60;100624.79;105480;1253;75153;-49
2023/09/17 05:30:18;;;;;;;;;;;;;;;15.62;90.73;100625.79;105616;1257;82391;-50
2023/09/17 05:32:47;;;;;;;;;;;;;;;15.62;90.63;100628.05;105749;1258;73040;-50
2023/09/17 05:35:15;;;;;;;;;;;;;;;15.64;90.66;100629.90;105745;1253;69932;-49
2023/09/17 05:37:44;;;;;;;;;;;;;;;15.67;90.82;100631.88;105652;1253;69942;-49
2023/09/17 05:40:12;;;;;;;;;;;;;;;15.71;90.92;100630.45;105576;1256;73928;-50
2023/09/17 05:42:40;;;;;;;;;;;;;;;15.74;90.99;100630.77;105264;1253;83342;-50
2023/09/17 05:45:09;;;;;;;;;;;;;;;15.79;91.01;100632.28;105642;1255;73577;-51
2023/09/17 05:47:38;;;;;;;;;;;;;;;15.83;91.13;100632.21;105622;1255;69935;-51
2023/09/17 05:50:07;;;;;;;;;;;;;;;15.86;90.95;100634.20;105770;1257;69900;-51
2023/09/17 05:52:36;;;;;;;;;;;;;;;15.91;90.89;100637.82;105340;1253;74858;-49
2023/09/17 05:55:05;;;;;;;;;;;;;;;15.95;90.95;100640.91;105525;1258;83637;-49
2023/09/17 05:57:33;;;;;;;;;;;;;;;16.01;91.00;100643.93;105672;1255;71687;-50
2023/09/17 06:00:04;;;;;;;;;;;;;;;16.06;90.93;100643.95;105726;1252;69958;-49
2023/09/17 06:02:40;;;;;;;;;;;;;;;16.13;90.86;100644.87;105499;1257;70195;-53
2023/09/17 06:05:10;;;;;;;;;;;;;;;16.18;90.82;100650.73;105405;1253;74789;-50
2023/09/17 06:07:38;;;;;;;;;;;;;;;16.25;90.83;100649.27;107127;1256;83828;-53
2023/09/17 06:10:07;;;;;;;;;;;;;;;16.33;90.68;100653.44;105542;1256;72643;-51
2023/09/17 06:12:35;;;;;;;;;;;;;;;16.40;90.63;100654.45;105707;1257;69952;-55
2023/09/17 06:15:05;;;;;;;;;;;;;;;16.46;90.40;100656.39;105620;1253;69857;-50
2023/09/17 06:17:33;;;;;;;;;;;;;;;16.53;90.36;100659.88;105707;1255;75036;-50
2023/09/17 06:20:02;;;;;;;;;;;;;;;16.59;90.25;100661.23;105315;1258;83402;-51
2023/09/17 06:22:30;;;;;;;;;;;;;;;16.67;90.21;100659.05;105631;1253;72687;-50
2023/09/17 06:24:59;;;;;;;;;;;;;;;16.75;90.09;100661.06;105670;1254;70056;-50
2023/09/17 06:27:30;;;;;;;;;;;;;;;16.82;89.98;100662.23;105504;1258;69985;-49
2023/09/17 06:29:59;;;;;;;;;;;;;;;16.89;89.65;100657.27;105614;1256;75106;-52
2023/09/17 06:32:29;;;;;;;;;;;;;;;16.96;89.74;100657.54;105803;1253;82909;-49
2023/09/17 06:34:57;;;;;;;;;;;;;;;17.04;89.53;100659.71;105523;1253;72653;-51
2023/09/17 06:37:28;;;;;;;;;;;;;;;17.10;89.46;100660.73;105575;1257;69910;-52
2023/09/17 06:39:57;;;;;;;;;;;;;;;17.18;89.52;100658.51;105463;1258;69803;-52
2023/09/17 06:42:26;;;;;;;;;;;;;;;17.26;89.39;100657.85;105681;1253;75353;-52
2023/09/17 06:44:54;;;;;;;;;;;;;;;17.34;89.29;100657.02;105635;1255;82510;-54
2023/09/17 06:47:22;;;;;;;;;;;;;;;17.42;89.15;100658.46;105540;1254;73654;-51
2023/09/17 06:49:51;;;;;;;;;;;;;;;17.50;89.01;100659.56;105600;1253;69791;-50
2023/09/17 06:52:19;;;;;;;;;;;;;;;17.57;88.76;100659.84;105761;1255;69909;-51
2023/09/17 06:54:50;;;;;;;;;;;;;;;17.65;88.64;100657.58;105446;1253;74772;-50
2023/09/17 06:57:18;;;;;;;;;;;;;;;17.72;88.46;100649.50;105674;1255;83712;-50
2023/09/17 06:59:47;;;;;;;;;;;;;;;17.81;88.55;100648.83;105679;1253;73711;-55
2023/09/17 07:02:15;;;;;;;;;;;;;;;17.89;88.69;100653.64;105771;1257;69972;-54
2023/09/17 07:04:43;;;;;;;;;;;;;;;17.97;88.58;100655.56;105613;1253;69066;-53
2023/09/17 07:07:12;;;;;;;;;;;;;;;18.04;88.14;100656.02;105531;1252;74717;-50
2023/09/17 07:09:40;;;;;;;;;;;;;;;18.10;88.08;100659.67;105579;1252;82530;-52
2023/09/17 07:12:08;;;;;;;;;;;;;;;18.19;87.98;100658.77;105552;1256;73665;-53
2023/09/17 07:14:36;;;;;;;;;;;;;;;18.28;88.12;100661.00;105587;1252;69869;-50
2023/09/17 07:17:04;;;;;;;;;;;;;;;18.39;87.97;100659.09;105748;1253;69869;-48
2023/09/17 07:19:33;;;;;;;;;;;;;;;18.47;87.73;100660.63;105527;1253;75105;-50
2023/09/17 07:22:02;;;;;;;;;;;;;;;18.55;87.36;100665.25;105607;1256;83571;-50
2023/09/17 07:24:32;;;;;;;;;;;;;;;18.62;87.42;100671.69;105581;1257;73866;-50
2023/09/17 07:27:00;;;;;;;;;;;;;;;18.73;87.35;100675.60;105649;1254;70042;-50
2023/09/17 07:29:29;;;;;;;;;;;;;;;18.81;86.96;100669.20;105475;1256;69875;-55
2023/09/17 07:31:57;;;;;;;;;;;;;;;18.91;86.91;100674.59;105485;1256;73809;-55
2023/09/17 07:34:26;;;;;;;;;;;;;;;19.03;86.94;100675.58;105477;1256;83300;-56
2023/09/17 07:36:55;;;;;;;;;;;;;;;19.13;86.82;100675.88;105501;1253;72682;-55
2023/09/17 07:39:23;;;;;;;;;;;;;;;19.23;86.62;100673.61;105487;1258;69122;-54
2023/09/17 07:41:51;;;;;;;;;;;;;;;19.33;86.47;100676.11;105509;1258;69119;-55
2023/09/17 07:44:20;;;;;;;;;;;;;;;19.42;86.12;100675.01;105553;1253;74507;-55
2023/09/17 07:46:48;;;;;;;;;;;;;;;19.50;85.69;100677.24;105590;1255;83600;-56
2023/09/17 07:49:17;;;;;;;;;;;;;;;19.55;85.17;100675.86;105489;1255;73856;-55
2023/09/17 07:51:46;;;;;;;;;;;;;;;19.62;84.94;100674.65;105507;1256;69149;-54
2023/09/17 07:54:14;;;;;;;;;;;;;;;19.72;84.81;100675.74;105482;1253;69030;-56
2023/09/17 07:56:42;;;;;;;;;;;;;;;19.81;84.52;100678.45;105602;1255;74178;-55
2023/09/17 07:59:11;;;;;;;;;;;;;;;19.88;84.13;100679.23;105256;1256;297225;-56
2023/09/17 08:01:39;;;;;;;;;;;;;;;19.96;84.14;100680.77;105490;1254;72607;-55
2023/09/17 08:04:09;;;;;;;;;;;;;;;20.05;83.78;100682.59;105521;1252;69051;-56
2023/09/17 08:06:37;;;;;;;;;;;;;;;20.15;83.62;100683.45;105495;1253;69076;-56
2023/09/17 08:09:06;;;;;;;;;;;;;;;20.23;83.22;100681.77;105538;1253;74836;-57
2023/09/17 08:11:34;;;;;;;;;;;;;;;20.33;82.94;100676.47;105414;1258;83280;-52
2023/09/17 08:14:03;;;;;;;;;;;;;;;20.44;83.22;100678.00;105369;1258;73661;-51
2023/09/17 08:16:31;;;;;;;;;;;;;;;20.62;83.77;100673.48;108928;1253;69088;-52
2023/09/17 08:18:59;;;;;;;;;;;;;;;20.83;83.82;100676.66;105499;1253;69098;-52
2023/09/17 08:21:28;;;;;;;;;;;;;;;21.04;83.71;100677.41;105532;1256;73533;-51
2023/09/17 08:24:00;;;;;;;;;;;;;;;21.20;83.26;100676.55;105592;1253;83125;-50
2023/09/17 08:26:28;;;;;;;;;;;;;;;21.37;83.16;100674.22;105591;1253;72713;-53
2023/09/17 08:28:56;;;;;;;;;;;;;;;21.52;82.74;100674.75;105454;1258;69129;-52
2023/09/17 08:31:25;;;;;;;;;;;;;;;21.65;82.20;100678.89;105516;1257;69160;-51
2023/09/17 08:33:54;;;;;;;;;;;;;;;21.81;81.91;100674.64;105549;1256;73521;-54
2023/09/17 08:36:22;;;;;;;;;;;;;;;21.95;81.11;100667.42;105471;1253;82162;-53
2023/09/17 08:38:50;;;;;;;;;;;;;;;22.01;80.31;100669.58;105447;1258;72309;-53
2023/09/17 08:41:19;;;;;;;;;;;;;;;22.13;80.10;100669.05;105530;1253;69830;-51
2023/09/17 08:43:47;;;;;;;;;;;;;;;22.26;80.05;100665.67;105539;1253;69135;-54
2023/09/17 08:46:16;;;;;;;;;;;;;;;22.40;79.77;100667.95;105553;1253;73781;-55
2023/09/17 08:48:45;;;;;;;;;;;;;;;22.52;79.52;100668.89;105507;1253;83760;-54
2023/09/17 08:51:13;;;;;;;;;;;;;;;22.63;79.18;100669.52;105528;1257;73733;-52
2023/09/17 08:53:57;;;;;;;;;;;;;;;22.70;78.18;100667.19;105511;1256;69115;-53
2023/09/17 08:56:26;;;;;;;;;;;;;;;22.79;78.24;100668.91;105497;1256;69108;-52
2023/09/17 08:58:55;;;;;;;;;;;;;;;22.94;77.85;100668.92;105509;1253;74002;-53
2023/09/17 09:01:26;;;;;;;;;;;;;;;23.06;77.46;100671.66;105541;1253;83371;-53
2023/09/17 09:03:56;;;;;;;;;;;;;;;23.20;76.83;100668.02;105499;1253;73744;-54
2023/09/17 09:06:24;;;;;;;;;;;;;;;23.32;76.34;100665.56;105297;1253;69198;-54
2023/09/17 09:08:52;;;;;;;;;;;;;;;23.44;76.12;100664.88;105558;1253;69710;-53
2023/09/17 09:11:21;;;;;;;;;;;;;;;23.59;75.72;100661.20;105340;1253;73437;-59
2023/09/17 09:13:51;;;;;;;;;;;;;;;23.72;75.47;100658.67;105536;1253;83152;-58
2023/09/17 09:16:20;;;;;;;;;;;;;;;23.82;74.65;100659.20;105484;1253;72523;-58
2023/09/17 09:18:48;;;;;;;;;;;;;;;23.91;74.22;100660.02;105228;1253;69244;-58
2023/09/17 09:21:16;;;;;;;;;;;;;;;24.04;74.10;100663.32;105467;1253;69011;-58
2023/09/17 09:23:45;;;;;;;;;;;;;;;24.17;73.54;100663.63;105494;1253;74604;-58
2023/09/17 09:26:13;;;;;;;;;;;;;;;24.27;72.99;100665.33;105435;1253;83369;-58
2023/09/17 09:28:41;;;;;;;;;;;;;;;24.40;72.51;100664.20;105437;1253;73880;-57
2023/09/17 09:31:09;;;;;;;;;;;;;;;24.55;71.97;100661.23;105460;1253;69225;-57
2023/09/17 09:33:38;;;;;;;;;;;;;;;24.69;71.09;100660.61;105294;1253;69797;-57
2023/09/17 09:36:07;;;;;;;;;;;;;;;24.85;70.75;100661.11;105490;1257;73882;-57
2023/09/17 09:38:35;;;;;;;;;;;;;;;25.02;69.92;100661.02;105529;1257;83312;-57
2023/09/17 09:41:04;;;;;;;;;;;;;;;25.18;69.52;100659.35;105253;1253;74259;-57
2023/09/17 09:43:32;;;;;;;;;;;;;;;25.30;68.73;100655.32;105431;1253;69102;-57
2023/09/17 09:46:04;;;;;;;;;;;;;;;25.42;68.33;100654.71;105590;1258;69015;-57
2023/09/17 09:48:39;;;;;;;;;;;;;;;25.55;67.95;100652.34;105539;1259;74619;-57
2023/09/17 09:51:07;;;;;;;;;;;;;;;25.73;67.61;100653.02;105475;1257;82289;-56
2023/09/17 09:53:35;;;;;;;;;;;;;;;25.92;66.74;100652.29;105507;1258;73391;-57
2023/09/17 09:56:04;;;;;;;;;;;;;;;26.10;66.14;100655.88;105494;1257;69178;-58
2023/09/17 09:58:32;;;;;;;;;;;;;;;26.26;65.11;100654.46;105365;1254;69241;-58
2023/09/17 10:01:04;;;;;;;;;;;;;;;26.44;64.52;100654.85;105311;1259;75016;-58
2023/09/17 10:03:32;;;;;;;;;;;;;;;26.68;64.45;100654.39;105318;1258;81452;-58
2023/09/17 10:06:06;;;;;;;;;;;;;;;26.91;63.47;100652.23;105244;1253;73713;-58
2023/09/17 10:08:37;;;;;;;;;;;;;;;27.08;62.68;100653.88;105274;1253;69192;-58
2023/09/17 10:11:06;;;;;;;;;;;;;;;27.27;61.98;100654.51;105506;1253;69174;-59
2023/09/17 10:13:35;;;;;;;;;;;;;;;27.40;61.65;100645.77;105496;1253;74591;-60
2023/09/17 10:16:03;;;;;;;;;;;;;;;27.58;61.04;100643.39;105307;1253;82385;-59
2023/09/17 10:18:33;;;;;;;;;;;;;;;27.68;60.32;100644.08;105273;1258;72672;-58
2023/09/17 10:21:01;;;;;;;;;;;;;;;27.86;59.42;100643.84;105502;1257;69113;-58
2023/09/17 10:23:31;;;;;;;;;;;;;;;28.07;58.69;100645.03;105323;1258;69180;-58
2023/09/17 10:25:59;;;;;;;;;;;;;;;28.23;58.16;100641.11;105533;1257;74197;-58
2023/09/17 10:28:27;;;;;;;;;;;;;;;28.41;57.71;100642.26;105531;1257;83991;-58
2023/09/17 10:30:56;;;;;;;;;;;;;;;28.62;57.64;100643.54;105517;1253;73816;-58
2023/09/17 10:33:24;;;;;;;;;;;;;;;28.86;57.07;100641.67;105546;1253;69703;-58
2023/09/17 10:35:52;;;;;;;;;;;;;;;29.07;56.74;100638.58;105550;1258;69202;-59
2023/09/17 10:38:22;;;;;;;;;;;;;;;29.35;56.23;100641.90;105263;1258;74860;-59
2023/09/17 10:40:50;;;;;;;;;;;;;;;29.49;55.21;100639.50;105484;1256;82556;-57
2023/09/17 10:43:19;;;;;;;;;;;;;;;29.59;55.01;100643.91;105438;1253;73799;-59
2023/09/17 10:45:47;;;;;;;;;;;;;;;29.79;54.37;100640.09;105424;1258;69193;-59
2023/09/17 10:48:15;;;;;;;;;;;;;;;29.93;53.91;100643.13;105273;1258;69132;-59
2023/09/17 10:50:43;;;;;;;;;;;;;;;30.07;53.06;100633.17;105321;1258;74464;-58
2023/09/17 10:53:11;;;;;;;;;;;;;;;30.23;52.97;100632.58;105546;1256;83096;-58
2023/09/17 10:55:42;;;;;;;;;;;;;;;30.46;52.82;100632.30;105467;1253;72792;-58
2023/09/17 10:58:15;;;;;;;;;;;;;;;30.72;52.31;100633.53;105505;1257;69161;-58
2023/09/17 11:00:44;;;;;;;;;;;;;;;30.79;51.49;100634.10;105522;1267;69057;-58
2023/09/17 11:03:13;;;;;;;;;;;;;;;30.84;51.16;100636.84;105552;1258;75171;-58
2023/09/17 11:05:43;;;;;;;;;;;;;;;30.98;50.97;100633.98;105524;1257;83223;-58
2023/09/17 11:08:11;;;;;;;;;;;;;;;31.14;50.24;100629.64;105487;1256;72417;-59
2023/09/17 11:10:41;;;;;;;;;;;;;;;31.08;49.49;100622.55;105496;1253;69188;-59
2023/09/17 11:13:13;;;;;;;;;;;;;;;30.99;49.35;100624.38;105510;1258;69127;-58
2023/09/17 11:15:42;;;;;;;;;;;;;;;30.94;49.04;100621.89;105487;1254;74937;-59
2023/09/17 11:18:11;;;;;;;;;;;;;;;30.93;49.02;100625.41;105489;1254;82354;-59
2023/09/17 11:21:04;;;;;;;;;;;;;;;30.93;48.84;100632.02;105531;1258;73567;-59
2023/09/17 11:23:36;;;;;;;;;;;;;;;31.16;48.85;100633.27;105496;1253;69131;-59
2023/09/17 11:26:05;;;;;;;;;;;;;;;31.26;47.82;100634.76;105506;1254;69090;-58
2023/09/17 11:28:37;;;;;;;;;;;;;;;31.30;47.82;100636.84;105508;1257;74816;-59
2023/09/17 11:31:09;;;;;;;;;;;;;;;31.40;47.74;100633.67;105487;1253;82436;-58
2023/09/17 11:33:38;;;;;;;;;;;;;;;31.48;47.22;100630.50;105481;1257;73853;-58
2023/09/17 11:36:07;;;;;;;;;;;;;;;31.52;46.82;100628.42;105443;1259;69191;-58
2023/09/17 11:38:35;;;;;;;;;;;;;;;31.50;46.52;100629.35;105348;1254;69460;-58
2023/09/17 11:41:04;;;;;;;;;;;;;;;31.46;46.31;100628.60;105500;1255;74846;-58
2023/09/17 11:43:33;;;;;;;;;;;;;;;31.41;46.16;100632.45;105590;1258;83526;-58
2023/09/17 11:46:04;;;;;;;;;;;;;;;31.37;45.95;100631.23;105345;1259;72638;-58
2023/09/17 11:48:33;;;;;;;;;;;;;;;31.42;46.15;100633.80;105289;1258;69286;-58
2023/09/17 11:51:21;;;;;;;;;;;;;;;31.68;46.38;100631.00;105517;1257;69119;-59
2023/09/17 11:54:00;;;;;;;;;;;;;;;31.98;45.76;100629.08;105519;1257;74724;-58
2023/09/17 11:56:33;;;;;;;;;;;;;;;32.27;45.37;100627.98;105454;1259;82496;-59
2023/09/17 11:59:02;;;;;;;;;;;;;;;32.50;44.80;100627.85;105473;1254;73627;-58
2023/09/17 12:01:46;;;;;;;;;;;;;;;32.78;44.75;100623.16;105521;1259;69208;-59
2023/09/17 12:04:14;;;;;;;;;;;;;;;33.01;44.17;100628.24;105529;1257;69189;-65
2023/09/17 12:06:46;;;;;;;;;;;;;;;33.17;43.80;100630.90;105554;1256;73784;-67
2023/09/17 12:11:58;;;;;;;;;;;;;;;33.25;42.53;100631.08;105481;1258;73707;-67
2023/09/17 12:14:27;;;;;;;;;;;;;;;33.33;42.30;100630.21;105492;1255;69174;-68
2023/09/17 12:16:55;;;;;;;;;;;;;;;33.47;42.43;100630.02;105478;1258;69518;-67
2023/09/17 12:19:24;;;;;;;;;;;;;;;33.62;42.15;100629.46;105474;1257;74262;-67
2023/09/17 12:21:54;;;;;;;;;;;;;;;33.65;41.84;100630.44;105528;1257;81792;-68